• Join FlightAware (Why Join?)
  • Login
  • US Flag 
10:24AM EST


 

Airport Tracker/Info


-or-


 

Live Flight TrackerFlight Track Log ✈ UAL906 ✈ 03-Jun-2013 ✈ KORD - EDDM / MUC

Flight Track Log - Related Links

Times and Time Zones

All times are in EDT time to prevent confusion due to time zone crossing. See the UAL906 flight status page for this flight to view local times or setup timezone preferences in your user account.

Time Position Orientation Groundspeed Altitude Reporting Facility
EDT Latitude Longitude Course Direction KTS MPH feet Rate Location/Type
06:52PM 41.9790 -87.9150 320° Northwest 28 32  Level FlightAware
06:52PM 41.9810 -87.9160 340° North 34 39 60 Level FlightAware
06:52PM 41.9810 -87.9170 270° West 16 18 60 Level FlightAware
06:53PM 41.9830 -87.9170 360° North 30 35 60 Level FlightAware
06:53PM 41.9830 -87.9200 270° West 34 39 60 Level FlightAware
06:53PM 41.9830 -87.9210 270° West 30 35 60 Level FlightAware
06:54PM 41.9840 -87.9220 323° Northwest 32 37 60 Level FlightAware
06:55PM 41.9870 -87.9190 37° Northeast 18 21 60 Level FlightAware
06:56PM 41.9870 -87.9150 90° East 22 25 60 Level FlightAware
06:56PM 41.9870 -87.9140 90° East 33 38 60 Level FlightAware
06:57PM 41.9890 -87.9130 20° North 20 23 120 Level FlightAware
06:57PM 41.9900 -87.9130 360° North 22 25 120 Level FlightAware
06:57PM 41.9930 -87.9100 37° Northeast 19 22 120 Level FlightAware
06:58PM 41.9930 -87.9090 90° East 16 18 120 Level FlightAware
07:00PM 42.0757 -87.6281 48° Northeast  Level FlightAware Approximate
07:00PM 41.9940 -87.9090 48° Northeast 2 2  Level FlightAware
07:01PM 41.9940 -87.9080 90° East 16 18 180 Level FlightAware
07:01PM 41.9950 -87.9070 37° Northeast 26 30 180 Level FlightAware
07:02PM 41.9960 -87.9080 323° Northwest 16 18 180 Level FlightAware
07:02PM 41.9970 -87.9100 304° West 20 23 180 Level FlightAware
07:03PM 42.0000 -87.9120 334° Northwest 34 39 180 Level FlightAware
07:03PM 42.0010 -87.9130 323° Northwest 19 22 240 Level FlightAware
07:06PM 42.0913 -87.5635 62° Northeast  Level FlightAware Approximate
07:06PM 42.0020 -87.9140 62° Northeast 17 20  Level FlightAware
07:07PM 42.0030 -87.9120 56° Northeast 21 24 480 Level FlightAware
07:08PM 42.0020 -87.9110 143° Southeast 36 41 1,200 Level FlightAware
07:08PM 41.9940 -87.9020 140° Southeast 145 167 1,620 Level FlightAware
07:08PM 41.9760 -87.8820 140° Southeast 162 186 1,500 2,460 Climbing FlightAware
07:09PM 41.9710 -87.8710 121° Southeast 176 203 1,800 1,500 Climbing FlightAware
07:09PM 41.9690 -87.8380 95° East 207 238 2,500 1,560 Climbing FlightAware
07:10PM 41.9670 -87.8050 95° East 231 266 3,200 1,980 Climbing FlightAware
07:10PM 41.9780 -87.7580 73° East 259 298 4,400 2,400 Climbing FlightAware
07:10PM 41.9920 -87.7230 62° Northeast 268 308 5,500 3,060 Climbing FlightAware
07:11PM 42.0110 -87.6800 59° Northeast 265 305 7,200 3,120 Climbing FlightAware
07:11PM 42.0300 -87.6370 59° Northeast 273 314 8,600 2,520 Climbing FlightAware
07:12PM 42.0490 -87.5960 58° Northeast 287 330 9,700 2,400 Climbing FlightAware
07:13PM 42.0750 -87.5380 59° Northeast 299 344 11,200 2,400 Climbing FlightAware
07:13PM 42.1100 -87.4560 60° Northeast 317 365 13,100 1,920 Climbing FlightAware
07:14PM 42.1380 -87.3950 58° Northeast 344 396 14,000 1,260 Climbing FlightAware
07:15PM 42.1720 -87.3110 61° Northeast 385 443 14,800 1,260 Climbing FlightAware
07:15PM 42.2090 -87.2250 60° Northeast 413 475 15,800 2,040 Climbing FlightAware
07:16PM 42.2590 -87.1110 59° Northeast 425 489 17,800 2,100 Climbing FlightAware
07:17PM 42.2840 -87.0090 72° East 453 521 18,900 1,740 Climbing FlightAware
07:18PM 42.2900 -86.8910 86° East 463 533 20,200 1,920 Climbing FlightAware
07:18PM 42.2940 -86.7610 88° East 471 542 21,700 1,860 Climbing FlightAware
07:19PM 42.2980 -86.6480 87° East 477 549 22,800 1,500 Climbing FlightAware
07:20PM 42.3030 -86.5150 87° East 491 565 23,800 1,500 Climbing FlightAware
07:20PM 42.3080 -86.3830 87° East 497 572 25,000 1,680 Climbing FlightAware
07:21PM 42.3120 -86.2610 87° East 499 574 26,100 1,740 Climbing FlightAware
07:22PM 42.3160 -86.1410 87° East 495 570 27,400 1,680 Climbing FlightAware
07:23PM 42.3180 -85.9500 89° East 501 577 28,900 960 Climbing FlightAware
07:23PM 42.3160 -85.8290 91° East 506 582 29,000 60 Climbing FlightAware
07:24PM 42.3140 -85.6920 91° East 503 579 29,000  Level FlightAware
07:25PM 42.3130 -85.5530 91° East 501 577 29,000  Level FlightAware
07:25PM 42.3110 -85.4240 91° East 500 575 29,000  Level FlightAware
07:26PM 42.3080 -85.2910 92° East 499 574 29,000  Level FlightAware
07:27PM 42.3060 -85.1540 91° East 498 573 29,000  Level FlightAware
07:28PM 42.3040 -85.0350 91° East 498 573 29,000  Level FlightAware
07:28PM 42.3010 -84.9070 92° East 498 573 29,000  Level FlightAware
07:29PM 42.2980 -84.7640 92° East 498 573 29,000  Level FlightAware
07:30PM 42.2950 -84.6390 92° East 499 574 29,000  Level FlightAware
07:30PM 42.3010 -84.5040 87° East 496 571 29,000  Level FlightAware
07:31PM 42.3120 -84.3820 83° East 497 572 29,000  Level FlightAware
07:32PM 42.3250 -84.2450 83° East 500 575 29,000  Level FlightAware
07:32PM 42.3370 -84.1180 83° East 502 578 29,000  Level FlightAware
07:33PM 42.3460 -84.0160 83° East 503 579 29,000  Level FlightAware
07:34PM 42.3600 -83.8780 82° East 504 580 29,000  Level FlightAware
07:35PM 42.3710 -83.7550 83° East 505 581 29,000  Level FlightAware
07:35PM 42.3850 -83.6100 83° East 506 582 29,000  Level FlightAware
07:36PM 42.3940 -83.5030 83° East 507 583 29,000  Level FlightAware
07:37PM 42.4070 -83.3580 83° East 507 583 29,000  Level FlightAware
07:37PM 42.4190 -83.2250 83° East 507 583 29,000  Level FlightAware
07:38PM 42.4310 -83.0920 83° East 508 585 29,000  Level FlightAware
07:39PM 42.4410 -82.9760 83° East 507 583 29,000  Level FlightAware
07:39PM 42.4550 -82.8160 83° East 508 585 29,000  Level FlightAware
07:40PM 42.4650 -82.6950 84° East 510 587 29,000  Level FlightAware
07:41PM 42.4750 -82.5760 83° East 511 588 29,000  Level FlightAware
07:42PM 42.4870 -82.4230 84° East 514 592 29,000  Level FlightAware
07:42PM 42.5010 -82.2460 84° East 517 595 29,000  Level FlightAware
07:43PM 42.5110 -82.1240 84° East 522 601 29,000  Level FlightAware
07:44PM 42.5220 -81.9830 84° East 524 603 29,000  Level FlightAware
07:45PM 42.5320 -81.8490 84° East 524 603 29,000  Level FlightAware
07:45PM 42.5440 -81.6970 84° East 523 602 29,000  Level FlightAware
07:46PM 42.5530 -81.5760 84° East 524 603 29,000  Level FlightAware
07:47PM 42.5620 -81.4490 84° East 527 606 29,000  Level FlightAware
07:47PM 42.5730 -81.2880 85° East 529 609 29,000  Level FlightAware
07:48PM 42.5830 -81.1510 84° East 529 609 29,000  Level FlightAware
07:49PM 42.5980 -80.9340 85° East 529 609 29,000  Level FlightAware
07:50PM 42.6050 -80.8180 85° East 528 608 29,000  Level FlightAware
07:50PM 42.6150 -80.6710 85° East 525 604 29,000  Level FlightAware
07:51PM 42.6250 -80.5210 85° East 519 597 29,000  Level FlightAware
07:52PM 42.6330 -80.3910 85° East 515 593 29,000  Level FlightAware
07:53PM 42.6410 -80.2550 85° East 510 587 29,000  Level FlightAware
07:53PM 42.6490 -80.1250 85° East 507 583 29,000  Level FlightAware
07:54PM 42.6570 -79.9980 85° East 503 579 29,000  Level FlightAware
07:55PM 42.6650 -79.8550 86° East 498 573 29,000  Level FlightAware
07:55PM 42.6720 -79.7300 86° East 495 570 29,000  Level FlightAware
07:56PM 42.6820 -79.5870 85° East 494 568 29,000  Level FlightAware
07:57PM 42.6890 -79.4810 85° East 494 568 29,000  Level FlightAware
07:57PM 42.7000 -79.3440 84° East 495 570 29,000  Level FlightAware
07:58PM 42.7110 -79.2160 83° East 496 571 29,000  Level FlightAware
07:59PM 42.7220 -79.1010 83° East 498 573 29,000  Level FlightAware
08:00PM 42.7350 -78.9590 83° East 499 574 29,000  Level FlightAware
08:00PM 42.7470 -78.8390 82° East 497 572 29,000  Level FlightAware
08:01PM 42.7600 -78.7100 82° East 497 572 29,000  Level FlightAware
08:02PM 42.7730 -78.5900 82° East 498 573 29,000  Level FlightAware
08:02PM 42.7880 -78.4440 82° East 497 572 29,000  Level FlightAware
08:03PM 42.8030 -78.3060 82° East 497 572 29,000  Level FlightAware
08:04PM 42.8250 -78.1710 77° East 496 571 29,000  Level FlightAware
08:04PM 42.8650 -78.0600 64° Northeast 495 570 29,000  Level FlightAware
08:05PM 42.9170 -77.9380 60° Northeast 496 571 29,000  Level FlightAware
08:06PM 42.9630 -77.8290 60° Northeast 495 570 29,000  Level FlightAware
08:07PM 43.0090 -77.7210 60° Northeast 496 571 29,000  Level FlightAware
08:07PM 43.0600 -77.6010 60° Northeast 494 568 29,000  Level FlightAware
08:08PM 43.1060 -77.4930 60° Northeast 495 570 29,000  Level FlightAware
08:09PM 43.1520 -77.3840 60° Northeast 495 570 29,000  Level FlightAware
08:09PM 43.2040 -77.2620 60° Northeast 495 570 29,000  Level FlightAware
08:10PM 43.2490 -77.1550 60° Northeast 494 568 29,000  Level FlightAware
08:11PM 43.3170 -76.9940 60° Northeast 494 568 29,000  Level FlightAware
08:12PM 43.3700 -76.8670 60° Northeast 492 566 29,000  Level FlightAware
08:12PM 43.4150 -76.7590 60° Northeast 493 567 29,000  Level FlightAware
08:13PM 43.4600 -76.6490 61° Northeast 494 568 29,000 120 Level FlightAware
08:14PM 43.5100 -76.5270 60° Northeast 493 567 29,200 420 Climbing FlightAware
08:15PM 43.5610 -76.4030 60° Northeast 502 578 29,700 660 Climbing FlightAware
08:15PM 43.6070 -76.2900 61° Northeast 514 592 30,200 780 Climbing FlightAware
08:16PM 43.6500 -76.1850 60° Northeast 524 603 30,800 840 Climbing FlightAware
08:17PM 43.7080 -76.0430 60° Northeast 539 620 31,400 960 Climbing FlightAware
08:17PM 43.7560 -75.9220 61° Northeast 542 624 32,200 1,080 Climbing FlightAware
08:18PM 43.8090 -75.7910 61° Northeast 546 628 33,000 540 Climbing FlightAware
08:19PM 43.8590 -75.6670 61° Northeast 547 629 33,000  Level FlightAware
08:20PM 43.9160 -75.5240 61° Northeast 542 624 33,000  Level FlightAware
08:20PM 43.9610 -75.4080 62° Northeast 543 625 33,000  Level FlightAware
08:21PM 44.0140 -75.2750 61° Northeast 545 627 33,000  Level FlightAware
08:22PM 44.0640 -75.1470 61° Northeast 543 625 33,000  Level FlightAware
08:22PM 44.1040 -75.0440 62° Northeast 543 625 33,000  Level FlightAware
08:23PM 44.1670 -74.8840 61° Northeast 543 625 33,000  Level FlightAware
08:24PM 44.2190 -74.7490 62° Northeast 542 624 33,000  Level FlightAware
08:24PM 44.2670 -74.6230 62° Northeast 542 624 33,000  Level FlightAware
08:25PM 44.3190 -74.4890 61° Northeast 542 624 33,000  Level FlightAware
08:26PM 44.3660 -74.3660 62° Northeast 543 625 33,000  Level FlightAware
08:27PM 44.4200 -74.2230 62° Northeast 543 625 33,000  Level FlightAware
08:27PM 44.4670 -74.1000 62° Northeast 544 626 33,000  Level FlightAware
08:28PM 44.5160 -73.9680 62° Northeast 544 626 33,000  Level FlightAware
08:29PM 44.5650 -73.8370 62° Northeast 544 626 33,000  Level FlightAware
08:29PM 44.6140 -73.7060 62° Northeast 544 626 33,000  Level FlightAware
08:30PM 44.6640 -73.5730 62° Northeast 543 625 33,000  Level FlightAware
08:31PM 44.7100 -73.4470 63° Northeast 544 626 33,000  Level FlightAware
08:31PM 44.7620 -73.3090 62° Northeast 546 628 33,000  Level FlightAware
08:32PM 44.8100 -73.1810 62° Northeast 545 627 33,000  Level FlightAware
08:33PM 44.8580 -73.0520 62° Northeast 544 626 33,000  Level FlightAware
08:34PM 44.9120 -72.9050 63° Northeast 546 628 33,000  Level FlightAware
08:34PM 44.9570 -72.7820 63° Northeast 545 627 33,000  Level FlightAware
08:35PM 45.0030 -72.6520 63° Northeast 547 629 33,000  Level FlightAware
08:36PM 45.0570 -72.5060 62° Northeast 545 627 33,000  Level FlightAware
08:36PM 45.1000 -72.3870 63° Northeast 545 627 33,000  Level FlightAware
08:37PM 45.1480 -72.2540 63° Northeast 547 629 33,000  Level FlightAware
08:38PM 45.1970 -72.1190 63° Northeast 544 626 33,000  Level FlightAware
08:38PM 45.2360 -72.0100 63° Northeast 544 626 33,000  Level FlightAware
08:39PM 45.2960 -71.8410 63° Northeast 546 628 33,000  Level FlightAware
08:40PM 45.3360 -71.7270 63° Northeast 546 628 33,000  Level FlightAware
08:40PM 45.3870 -71.5830 63° Northeast 547 629 33,000  Level FlightAware
08:41PM 45.4320 -71.4550 63° Northeast 546 628 33,000  Level FlightAware
08:42PM 45.4830 -71.3120 63° Northeast 544 626 33,000  Level FlightAware
08:43PM 45.5270 -71.1840 64° Northeast 545 627 33,000  Level FlightAware
08:43PM 45.5780 -71.0380 63° Northeast 545 627 33,000  Level FlightAware
08:44PM 45.6220 -70.9110 64° Northeast 543 625 33,000  Level FlightAware
08:45PM 45.6720 -70.7670 64° Northeast 541 623 33,000  Level FlightAware
08:45PM 45.7110 -70.6550 63° Northeast 540 621 33,000  Level FlightAware
08:46PM 45.7600 -70.5110 64° Northeast 540 621 33,000  Level FlightAware
08:47PM 45.8040 -70.3840 64° Northeast 538 619 33,000  Level FlightAware
08:47PM 45.8530 -70.2400 64° Northeast 536 617 33,000  Level FlightAware
08:48PM 45.8960 -70.1120 64° Northeast 535 616 33,000  Level FlightAware
08:49PM 45.9440 -69.9690 64° Northeast 535 616 33,000  Level FlightAware
08:50PM 45.9860 -69.8420 65° Northeast 531 611 33,000  Level FlightAware
08:50PM 46.0340 -69.6980 64° Northeast 532 612 33,000  Level FlightAware
08:51PM 46.0700 -69.5880 65° Northeast 530 610 33,000  Level FlightAware
08:51PM 46.1020 -69.4910 65° Northeast 532 612 33,000  Level FlightAware
08:52PM 46.1490 -69.3480 65° Northeast 531 611 33,000  Level FlightAware
08:53PM 46.1960 -69.2030 65° Northeast 534 615 33,000  Level FlightAware
08:54PM 46.2370 -69.0760 65° Northeast 534 615 33,000  Level FlightAware
08:54PM 46.2830 -68.9330 65° Northeast 535 616 33,000  Level FlightAware
08:55PM 46.3250 -68.8010 65° Northeast 535 616 33,000  Level FlightAware
08:56PM 46.3660 -68.6730 65° Northeast 533 613 33,000  Level FlightAware
08:56PM 46.4150 -68.5160 66° East 534 615 33,000  Level FlightAware
08:57PM 46.4660 -68.3550 65° Northeast 533 613 33,000  Level FlightAware
08:58PM 46.5080 -68.2230 65° Northeast 533 613 33,000  Level FlightAware
08:59PM 46.5400 -68.1230 65° Northeast 533 613 33,000  Level FlightAware
09:00PM 46.5870 -67.9770 65° Northeast 533 613 33,000  Level FlightAware
09:00PM 46.6270 -67.8490 65° Northeast 533 613 33,000  Level FlightAware
09:01PM 46.6700 -67.7170 65° Northeast 533 613 33,000  Level FlightAware
09:02PM 46.7030 -67.6110 66° East 533 613 33,000  Level FlightAware
09:02PM 46.7350 -67.5120 65° Northeast 533 613 33,000  Level FlightAware
09:03PM 46.7790 -67.3760 65° Northeast 533 613 33,000  Level FlightAware
09:04PM 46.8110 -67.2760 65° Northeast 533 613 33,000  Level FlightAware
09:05PM 46.8540 -67.1400 65° Northeast 533 613 33,000  Level FlightAware
09:05PM 46.8840 -67.0450 65° Northeast 533 613 33,000  Level FlightAware
09:06PM 46.9270 -66.9120 65° Northeast 533 613 33,000  Level FlightAware
09:07PM 46.9580 -66.8120 66° East 533 613 33,000  Level FlightAware
09:07PM 47.0010 -66.6780 65° Northeast 533 613 33,000  Level FlightAware
09:08PM 47.1667 -66.3000 65° Northeast 520 598 33,000  Level Gander Center
09:09PM 47.2000 -66.2000 64° Northeast 520 598 33,000  Level Gander Center
09:09PM 47.2500 -66.0667 61° Northeast 520 598 33,000  Level Moncton Center
09:10PM 47.3167 -65.9000 59° Northeast 510 587 33,000  Level Moncton Center
09:11PM 47.3833 -65.7000 64° Northeast 510 587 33,000  Level Moncton Center
09:12PM 47.4667 -65.5333 53° Northeast 510 587 33,000  Level Moncton Center
09:13PM 47.5333 -65.3333 64° Northeast 510 587 33,000  Level Moncton Center
09:14PM 47.6000 -65.1667 59° Northeast 500 575 33,000  Level Moncton Center
09:15PM 47.6667 -64.9667 64° Northeast 500 575 33,000  Level Moncton Center
09:16PM 47.6833 -64.9333 53° Northeast 500 575 33,000  Level Gander Center
09:16PM 47.7333 -64.8000 61° Northeast 510 587 33,000  Level Moncton Center
09:17PM 47.8000 -64.6167 62° Northeast 510 587 33,000  Level Moncton Center
09:18PM 47.8667 -64.4167 64° Northeast 500 575 33,000  Level Moncton Center
09:19PM 47.9333 -64.2500 59° Northeast 510 587 33,000  Level Moncton Center
09:20PM 48.0000 -64.0667 61° Northeast 510 587 33,000  Level Moncton Center
09:21PM 48.0333 -63.9833 59° Northeast 510 587 33,000  Level Gander Center
09:21PM 48.0667 -63.8667 67° East 510 587 33,000  Level Moncton Center
09:22PM 48.1333 -63.7000 59° Northeast 510 587 33,000  Level Moncton Center
09:23PM 48.2000 -63.5000 63° Northeast 510 587 33,000  Level Moncton Center
09:24PM 48.2833 -63.3167 56° Northeast 510 587 33,000 240 Level Moncton Center
09:25PM 48.3500 -63.1167 63° Northeast 510 587 33,500 600 Climbing Moncton Center
09:26PM 48.3667 -63.0667 63° Northeast 510 587 33,900 1,080 Climbing Gander Center
09:26PM 48.4000 -62.9333 69° East 510 587 34,600 1,080 Climbing Moncton Center
09:27PM 48.4333 -62.8667 53° Northeast 510 587 35,000 240 Climbing Gander Center
09:28PM 48.4833 -62.6667 69° East 520 598 35,000  Level Gander Center
09:28PM 48.5333 -62.5500 57° Northeast 520 598 35,000  Level Moncton Center
09:29PM 48.6000 -62.3500 63° Northeast 500 575 35,000  Level Moncton Center
09:30PM 48.6333 -62.3000 45° Northeast 510 587 35,000  Level Gander Center
09:31PM 48.7000 -62.1000 63° Northeast 510 587 35,000  Level Gander Center
09:31PM 48.7333 -61.9833 67° East 510 587 35,000  Level Moncton Center
09:32PM 48.8000 -61.7833 63° Northeast 510 587 35,000  Level Moncton Center
09:33PM 48.8167 -61.7167 69° East 510 587 35,000  Level Gander Center
09:33PM 48.8500 -61.6000 66° East 510 587 35,000  Level Moncton Center
09:34PM 48.8833 -61.5167 59° Northeast 510 587 35,000  Level Gander Center
09:35PM 48.9500 -61.3333 61° Northeast 510 587 35,000  Level Gander Center
09:35PM 48.9833 -61.2000 69° East 510 587 35,000  Level Moncton Center
09:36PM 49.0333 -61.0333 65° Northeast 510 587 35,000  Level Moncton Center
09:37PM 49.1000 -60.8167 65° Northeast 510 587 35,000  Level Moncton Center
09:43PM 49.4360 -59.8110 65° Northeast 512 589 35,000  Level FlightAware
09:43PM 49.4820 -59.6640 64° Northeast 513 590 35,000  Level FlightAware
09:44PM 49.5380 -59.4800 65° Northeast 512 589 35,000  Level FlightAware
09:45PM 49.5880 -59.3160 65° Northeast 512 589 35,000  Level FlightAware
09:46PM 49.6290 -59.1780 65° Northeast 511 588 35,000  Level FlightAware
09:46PM 49.6720 -59.0340 65° Northeast 512 589 35,000  Level FlightAware
09:47PM 49.7100 -58.9130 64° Northeast 512 589 35,000  Level FlightAware
09:48PM 49.7670 -58.7320 64° Northeast 511 588 35,000  Level FlightAware
09:49PM 49.8080 -58.5990 64° Northeast 511 588 35,000  Level FlightAware
09:50PM 49.8610 -58.4240 65° Northeast 511 588 35,000  Level FlightAware
09:50PM 49.9000 -58.2980 64° Northeast 511 588 35,000  Level FlightAware
09:51PM 49.9460 -58.1430 65° Northeast 510 587 35,000  Level FlightAware
09:52PM 49.9860 -58.0120 65° Northeast 510 587 35,000  Level FlightAware
09:52PM 50.0240 -57.8820 65° Northeast 509 586 35,000  Level FlightAware
09:53PM 50.0690 -57.7320 65° Northeast 509 586 35,000  Level FlightAware
09:54PM 50.1090 -57.5970 65° Northeast 509 586 35,000  Level FlightAware
09:54PM 50.1480 -57.4630 66° East 509 586 35,000  Level FlightAware
09:55PM 50.1910 -57.3150 66° East 509 586 35,000  Level FlightAware
09:56PM 50.2310 -57.1780 65° Northeast 510 587 35,000  Level FlightAware
09:56PM 50.2700 -57.0450 65° Northeast 510 587 35,000  Level FlightAware
09:57PM 50.3120 -56.8970 66° East 510 587 35,000  Level FlightAware
09:58PM 50.3510 -56.7600 66° East 512 589 35,000  Level FlightAware
09:59PM 50.3940 -56.6080 66° East 512 589 35,000  Level FlightAware
09:59PM 50.4320 -56.4710 66° East 513 590 35,000  Level FlightAware
10:00PM 50.4750 -56.3170 66° East 513 590 35,000  Level FlightAware
10:01PM 50.5130 -56.1810 66° East 513 590 35,000  Level FlightAware
10:01PM 50.5500 -56.0450 67° East 513 590 35,000  Level FlightAware
10:02PM 50.5930 -55.8910 66° East 514 592 35,000  Level FlightAware
10:03PM 50.6340 -55.7380 67° East 517 595 35,000  Level FlightAware
10:04PM 50.6700 -55.6050 67° East 518 596 35,000  Level FlightAware
10:04PM 50.7100 -55.4590 67° East 518 596 35,000  Level FlightAware
10:05PM 50.7510 -55.3030 67° East 521 600 35,000  Level FlightAware
10:06PM 50.7890 -55.1620 67° East 522 601 35,000  Level FlightAware
10:06PM 50.8260 -55.0200 68° East 522 601 35,000  Level FlightAware
10:07PM 50.8660 -54.8650 68° East 523 602 35,000  Level FlightAware
10:08PM 50.9180 -54.6660 67° East 524 603 35,000  Level FlightAware
10:09PM 50.9580 -54.5110 68° East 523 602 35,000  Level FlightAware
10:10PM 50.9990 -54.3470 68° East 523 602 35,000  Level FlightAware
10:10PM 51.0520 -54.1380 68° East 521 600 35,000  Level FlightAware
10:11PM 51.0900 -53.9900 68° East 521 600 35,000  Level FlightAware
10:12PM 51.1280 -53.8370 68° East 35,000  Level FlightAware
10:12PM 51.1333 -53.6833 68° East 510 587 35,000  Level Moncton Center
10:13PM 51.1500 -53.6000 72° East 520 598 35,000  Level Gander Center
10:13PM 51.1833 -53.4833 65° Northeast 520 598 35,000  Level Moncton Center
10:14PM 51.2333 -53.2833 68° East 520 598 35,000  Level Gander Center
10:15PM 51.2833 -53.0833 68° East 520 598 35,000  Level Gander Center
10:16PM 51.3167 -52.9833 62° Northeast 510 587 35,000  Level Gander Center
10:16PM 51.3333 -52.8667 77° East 520 598 35,000  Level Gander Center
10:17PM 51.3833 -52.6667 68° East 520 598 35,000  Level Gander Center
10:18PM 51.4167 -52.5333 68° East 520 598 35,000  Level Gander Center
10:19PM 51.4667 -52.3333 68° East 510 587 35,000  Level Gander Center
10:20PM 51.5167 -52.1000 71° East 520 598 35,000  Level Gander Center
10:21PM 51.6000 -51.7833 67° East 520 598 35,000  Level Gander Center
10:22PM 51.6500 -51.5833 68° East 520 598 35,000  Level Gander Center
10:23PM 51.6667 -51.4500 79° East 520 598 35,000  Level Gander Center
10:24PM 51.7167 -51.2500 68° East 520 598 35,000  Level Gander Center
10:25PM 51.7667 -51.0167 71° East 530 610 35,000  Level Gander Center
10:26PM 51.8167 -50.7833 71° East 520 598 35,000  Level Gander Center
10:27PM 51.8500 -50.5667 76° East 520 598 35,000  Level Gander Center
10:28PM 51.9167 -50.3500 63° Northeast 530 610 35,000  Level Gander Center
10:30PM 52.0031 -49.9787 77° East  Level FlightAware Approximate
10:37PM 52.2071 -48.5025 77° East  Level FlightAware Approximate
10:38PM 52.2347 -48.2905 78° East  Level FlightAware Approximate
10:39PM 52.2619 -48.0783 78° East  Level FlightAware Approximate
10:40PM 52.2888 -47.8658 78° East  Level FlightAware Approximate
10:41PM 52.3153 -47.6530 78° East  Level FlightAware Approximate
10:42PM 52.3414 -47.4400 79° East  Level FlightAware Approximate
10:43PM 52.3671 -47.2268 79° East  Level FlightAware Approximate
10:44PM 52.3924 -47.0133 79° East  Level FlightAware Approximate
10:45PM 52.4174 -46.7995 79° East  Level FlightAware Approximate
10:46PM 52.4419 -46.5856 79° East  Level FlightAware Approximate
10:47PM 52.4661 -46.3713 79° East  Level FlightAware Approximate
10:48PM 52.4899 -46.1569 80° East  Level FlightAware Approximate
10:49PM 52.5133 -45.9422 80° East  Level FlightAware Approximate
10:50PM 52.5363 -45.7273 80° East  Level FlightAware Approximate
10:51PM 52.5589 -45.5121 80° East  Level FlightAware Approximate
10:52PM 52.5812 -45.2968 80° East  Level FlightAware Approximate
10:53PM 52.6030 -45.0812 80° East  Level FlightAware Approximate
10:54PM 52.6245 -44.8654 81° East  Level FlightAware Approximate
10:55PM 52.6455 -44.6494 81° East  Level FlightAware Approximate
10:56PM 52.6662 -44.4332 81° East  Level FlightAware Approximate
10:57PM 52.6865 -44.2168 81° East  Level FlightAware Approximate
10:58PM 52.7063 -44.0002 81° East  Level FlightAware Approximate
10:59PM 52.7258 -43.7834 81° East  Level FlightAware Approximate
11:00PM 52.7449 -43.5664 82° East  Level FlightAware Approximate
11:01PM 52.7636 -43.3493 82° East  Level FlightAware Approximate
11:02PM 52.7819 -43.1319 82° East  Level FlightAware Approximate
11:03PM 52.7998 -42.9143 82° East  Level FlightAware Approximate
11:04PM 52.8173 -42.6966 82° East  Level FlightAware Approximate
11:05PM 52.8344 -42.4787 83° East  Level FlightAware Approximate
11:06PM 52.8511 -42.2607 83° East  Level FlightAware Approximate
11:07PM 52.8674 -42.0424 83° East  Level FlightAware Approximate
11:08PM 52.8833 -41.8241 83° East  Level FlightAware Approximate
11:09PM 52.8988 -41.6055 83° East  Level FlightAware Approximate
11:10PM 52.9138 -41.3868 83° East  Level FlightAware Approximate
11:11PM 52.9285 -41.1679 84° East  Level FlightAware Approximate
11:12PM 52.9428 -40.9490 84° East  Level FlightAware Approximate
11:13PM 52.9567 -40.7302 84° East  Level FlightAware Approximate
11:14PM 52.9701 -40.5114 84° East  Level FlightAware Approximate
11:15PM 52.9832 -40.2924 84° East  Level FlightAware Approximate
11:16PM 52.9959 -40.0733 84° East  Level FlightAware Approximate
11:17PM 53.0061 -39.8538 86° East  Level FlightAware Approximate
11:18PM 53.0148 -39.6340 86° East  Level FlightAware Approximate
11:19PM 53.0232 -39.4142 86° East  Level FlightAware Approximate
11:20PM 53.0311 -39.1943 86° East  Level FlightAware Approximate
11:21PM 53.0387 -38.9743 87° East  Level FlightAware Approximate
11:22PM 53.0458 -38.7542 87° East  Level FlightAware Approximate
11:23PM 53.0526 -38.5340 87° East  Level FlightAware Approximate
11:24PM 53.0589 -38.3138 87° East  Level FlightAware Approximate
11:25PM 53.0648 -38.0936 87° East  Level FlightAware Approximate
11:26PM 53.0703 -37.8732 88° East  Level FlightAware Approximate
11:27PM 53.0754 -37.6529 88° East  Level FlightAware Approximate
11:28PM 53.0801 -37.4324 88° East  Level FlightAware Approximate
11:29PM 53.0844 -37.2119 88° East  Level FlightAware Approximate
11:30PM 53.0883 -36.9914 88° East  Level FlightAware Approximate
11:31PM 53.0918 -36.7709 88° East  Level FlightAware Approximate
11:32PM 53.0949 -36.5503 89° East  Level FlightAware Approximate
11:33PM 53.0975 -36.3297 89° East  Level FlightAware Approximate
11:34PM 53.0998 -36.1090 89° East  Level FlightAware Approximate
11:35PM 53.1016 -35.8883 89° East  Level FlightAware Approximate
11:36PM 53.1031 -35.6676 89° East  Level FlightAware Approximate
11:37PM 53.1041 -35.4469 89° East  Level FlightAware Approximate
11:38PM 53.1047 -35.2262 90° East  Level FlightAware Approximate
11:39PM 53.1049 -35.0077 90° East  Level FlightAware Approximate
11:40PM 53.1047 -34.7891 90° East  Level FlightAware Approximate
11:41PM 53.1041 -34.5706 90° East  Level FlightAware Approximate
11:42PM 53.1032 -34.3520 90° East  Level FlightAware Approximate
11:43PM 53.1018 -34.1335 91° East  Level FlightAware Approximate
11:44PM 53.1000 -33.9150 91° East  Level FlightAware Approximate
11:45PM 53.0978 -33.6964 91° East  Level FlightAware Approximate
11:46PM 53.0952 -33.4780 91° East  Level FlightAware Approximate
11:47PM 53.0922 -33.2595 91° East  Level FlightAware Approximate
11:48PM 53.0888 -33.0411 91° East  Level FlightAware Approximate
11:49PM 53.0850 -32.8227 92° East  Level FlightAware Approximate
11:50PM 53.0809 -32.6044 92° East  Level FlightAware Approximate
11:51PM 53.0763 -32.3861 92° East  Level FlightAware Approximate
11:52PM 53.0713 -32.1678 92° East  Level FlightAware Approximate
11:53PM 53.0659 -31.9496 92° East  Level FlightAware Approximate
11:54PM 53.0601 -31.7293 92° East  Level FlightAware Approximate
11:55PM 53.0538 -31.5091 93° East  Level FlightAware Approximate
11:56PM 53.0472 -31.2890 93° East  Level FlightAware Approximate
11:57PM 53.0401 -31.0689 93° East  Level FlightAware Approximate
11:58PM 53.0326 -30.8489 93° East  Level FlightAware Approximate
11:59PM 53.0248 -30.6289 93° East  Level FlightAware Approximate
12:00AM 53.0165 -30.4091 93° East  Level FlightAware Approximate
12:01AM 53.0078 -30.1893 94° East  Level FlightAware Approximate
12:02AM 53.0013 -29.9696 86° East  Level FlightAware Approximate
12:03AM 53.0103 -29.7499 86° East  Level FlightAware Approximate
12:04AM 53.0188 -29.5301 86° East  Level FlightAware Approximate
12:05AM 53.0270 -29.3102 86° East  Level FlightAware Approximate
12:06AM 53.0348 -29.0903 87° East  Level FlightAware Approximate
12:07AM 53.0421 -28.8703 87° East  Level FlightAware Approximate
12:08AM 53.0491 -28.6502 87° East  Level FlightAware Approximate
12:09AM 53.0556 -28.4300 87° East  Level FlightAware Approximate
12:10AM 53.0617 -28.2097 87° East  Level FlightAware Approximate
12:11AM 53.0675 -27.9894 87° East  Level FlightAware Approximate
12:12AM 53.0728 -27.7691 88° East  Level FlightAware Approximate
12:13AM 53.0777 -27.5487 88° East  Level FlightAware Approximate
12:14AM 53.0822 -27.3282 88° East  Level FlightAware Approximate
12:15AM 53.0863 -27.1077 88° East  Level FlightAware Approximate
12:16AM 53.0900 -26.8872 88° East  Level FlightAware Approximate
12:17AM 53.0933 -26.6666 88° East  Level FlightAware Approximate
12:18AM 53.0962 -26.4460 89° East  Level FlightAware Approximate
12:19AM 53.0987 -26.2253 89° East  Level FlightAware Approximate
12:20AM 53.1007 -26.0047 89° East  Level FlightAware Approximate
12:21AM 53.1024 -25.7840 89° East  Level FlightAware Approximate
12:22AM 53.1036 -25.5633 89° East  Level FlightAware Approximate
12:23AM 53.1045 -25.3426 90° East  Level FlightAware Approximate
12:24AM 53.1049 -25.1219 90° East  Level FlightAware Approximate
12:25AM 53.1049 -24.9012 90° East  Level FlightAware Approximate
12:26AM 53.1045 -24.6805 90° East  Level FlightAware Approximate
12:27AM 53.1037 -24.4598 90° East  Level FlightAware Approximate
12:28AM 53.1025 -24.2391 90° East  Level FlightAware Approximate
12:29AM 53.1009 -24.0184 91° East  Level FlightAware Approximate
12:30AM 53.0989 -23.7978 91° East  Level FlightAware Approximate
12:31AM 53.0965 -23.5771 91° East  Level FlightAware Approximate
12:32AM 53.0936 -23.3565 91° East  Level FlightAware Approximate
12:33AM 53.0904 -23.1359 91° East  Level FlightAware Approximate
12:34AM 53.0867 -22.9154 91° East  Level FlightAware Approximate
12:35AM 53.0827 -22.6949 92° East  Level FlightAware Approximate
12:36AM 53.0782 -22.4744 92° East  Level FlightAware Approximate
12:37AM 53.0733 -22.2540 92° East  Level FlightAware Approximate
12:38AM 53.0680 -22.0336 92° East  Level FlightAware Approximate
12:39AM 53.0624 -21.8133 92° East  Level FlightAware Approximate
12:40AM 53.0563 -21.5931 93° East  Level FlightAware Approximate
12:41AM 53.0498 -21.3729 93° East  Level FlightAware Approximate
12:42AM 53.0429 -21.1528 93° East  Level FlightAware Approximate
12:43AM 53.0355 -20.9328 93° East  Level FlightAware Approximate
12:44AM 53.0278 -20.7128 93° East  Level FlightAware Approximate
12:45AM 53.0197 -20.4929 93° East  Level FlightAware Approximate
12:46AM 53.0112 -20.2735 94° East  Level FlightAware Approximate
12:47AM 53.0023 -20.0543 94° East  Level FlightAware Approximate
12:48AM 53.0149 -19.8365 81° East  Level FlightAware Approximate
12:49AM 53.0343 -19.6190 81° East  Level FlightAware Approximate
12:50AM 53.0533 -19.4013 82° East  Level FlightAware Approximate
12:51AM 53.0719 -19.1834 82° East  Level FlightAware Approximate
12:52AM 53.0901 -18.9654 82° East  Level FlightAware Approximate
12:53AM 53.1080 -18.7471 82° East  Level FlightAware Approximate
12:54AM 53.1254 -18.5287 82° East  Level FlightAware Approximate
12:55AM 53.1424 -18.3101 83° East  Level FlightAware Approximate
12:56AM 53.1590 -18.0914 83° East  Level FlightAware Approximate
12:57AM 53.1752 -17.8724 83° East  Level FlightAware Approximate
12:58AM 53.1911 -17.6533 83° East  Level FlightAware Approximate
12:59AM 53.2065 -17.4341 83° East  Level FlightAware Approximate
01:00AM 53.2215 -17.2147 83° East  Level FlightAware Approximate
01:01AM 53.2361 -16.9951 84° East  Level FlightAware Approximate
01:02AM 53.2503 -16.7754 84° East  Level FlightAware Approximate
01:03AM 53.2641 -16.5555 84° East  Level FlightAware Approximate
01:04AM 53.2775 -16.3355 84° East  Level FlightAware Approximate
01:05AM 53.2905 -16.1154 84° East  Level FlightAware Approximate
01:06AM 53.3031 -15.8951 84° East  Level FlightAware Approximate
01:07AM 53.3153 -15.6748 85° East  Level FlightAware Approximate
01:08AM 53.3270 -15.4542 85° East  Level FlightAware Approximate
01:09AM 53.3384 -15.2336 85° East  Level FlightAware Approximate
01:09AM 53.0830 -13.7930 85° East 443 510 35,000  Level FlightAware
01:09AM 53.0940 -13.6600 82° East 443 510 35,000  Level FlightAware
01:10AM 53.1110 -13.4580 82° East 444 511 35,000  Level FlightAware
01:11AM 53.1230 -13.3330 81° East 444 511 35,000  Level FlightAware
01:12AM 53.1430 -13.0940 82° East 444 511 35,000  Level FlightAware
01:13AM 53.1520 -12.9810 82° East 444 511 35,000  Level FlightAware
01:13AM 53.1670 -12.7960 82° East 445 512 35,000  Level FlightAware
01:14AM 53.1760 -12.6680 83° East 445 512 35,000  Level FlightAware
01:15AM 53.1910 -12.4730 83° East 447 514 35,000  Level FlightAware
01:16AM 53.2010 -12.3330 83° East 448 516 35,000  Level FlightAware
01:17AM 53.2130 -12.1640 83° East 448 516 35,000  Level FlightAware
01:17AM 53.2210 -12.0340 84° East 449 517 35,000  Level FlightAware
01:18AM 53.2320 -11.8710 84° East 449 517 35,000  Level FlightAware
01:19AM 53.2410 -11.7360 84° East 450 518 35,000  Level FlightAware
01:19AM 53.2500 -11.5950 84° East 450 518 35,000  Level FlightAware
01:20AM 53.2590 -11.4590 84° East 451 519 35,000  Level FlightAware
01:21AM 53.2680 -11.3010 84° East 450 518 35,000  Level FlightAware
01:21AM 53.2780 -11.1460 84° East 451 519 35,000  Level FlightAware
01:22AM 53.2850 -11.0240 84° East 452 520 35,000  Level FlightAware
01:23AM 53.2940 -10.8710 84° East 452 520 35,000  Level FlightAware
01:23AM 53.3010 -10.7470 85° East 452 520 35,000  Level FlightAware
01:24AM 53.3110 -10.5810 84° East 453 521 35,000  Level FlightAware
01:25AM 53.3190 -10.4320 85° East 453 521 35,000  Level FlightAware
01:26AM 53.3260 -10.2920 85° East 454 522 35,000  Level FlightAware
01:26AM 53.3340 -10.1480 85° East 454 522 35,000  Level FlightAware
01:27AM 53.3420 -9.9920 85° East 454 522 35,000  Level FlightAware
01:28AM 53.3500 -9.8360 85° East 454 522 35,000  Level FlightAware
01:28AM 53.3560 -9.7040 86° East 454 522 35,000  Level FlightAware
01:29AM 53.3640 -9.5520 85° East 455 524 35,000  Level FlightAware
01:30AM 53.3710 -9.4050 85° East 454 522 35,000  Level FlightAware
01:31AM 53.3770 -9.2630 86° East 454 522 35,000  Level FlightAware
01:31AM 53.3830 -9.1200 86° East 454 522 35,000  Level FlightAware
01:32AM 53.3819 -8.9932 86° East 450 518 35,000 -180 Level FlightAware UK
01:32AM 53.3840 -8.9296 87° East 450 518 34,900  Descending FlightAware UK
01:32AM 53.3910 -8.9470 87° East 453 521 35,000  Climbing FlightAware
01:32AM 53.3868 -8.8671 87° East 450 518 34,900 -180 Descending FlightAware UK
01:33AM 53.3895 -8.8045 86° East 446 513 34,900 240 Level FlightAware UK
01:33AM 53.3970 -8.8060 86° East 451 519 35,000 240 Climbing FlightAware
01:33AM 53.3929 -8.7211 86° East 448 516 35,000  Level FlightAware UK
01:33AM 53.3956 -8.6586 86° East 448 516 35,000  Level FlightAware UK
01:33AM 53.4040 -8.6510 86° East 449 517 35,000  Level FlightAware
01:34AM 53.3989 -8.5755 86° East 448 516 35,000  Level FlightAware UK
01:34AM 53.4012 -8.5131 86° East 448 516 35,000  Level FlightAware UK
01:34AM 53.4090 -8.5140 86° East 447 514 35,000  Level FlightAware
01:34AM 53.4045 -8.4299 86° East 446 513 35,000  Level FlightAware UK
01:35AM 53.4072 -8.3680 86° East 448 516 35,000  Level FlightAware UK
01:35AM 53.4160 -8.3620 86° East 444 511 35,000  Level FlightAware
01:35AM 53.4105 -8.2849 86° East 448 516 35,000  Level FlightAware UK
01:35AM 53.4127 -8.2230 87° East 446 513 35,000  Level FlightAware UK
01:35AM 53.4210 -8.2240 87° East 442 509 35,000  Level FlightAware
01:36AM 53.4155 -8.1407 87° East 444 511 35,000  Level FlightAware UK
01:36AM 53.4177 -8.0795 87° East 444 511 35,000  Level FlightAware UK
01:36AM 53.4260 -8.0880 87° East 440 506 35,000  Level FlightAware
01:36AM 53.4204 -7.9982 87° East 442 509 35,000  Level FlightAware UK
01:37AM 53.4222 -7.9375 87° East 442 509 35,000  Level FlightAware UK
01:37AM 53.4310 -7.9360 87° East 439 505 35,000  Level FlightAware
01:37AM 53.4246 -7.8361 87° East 442 509 35,000  Level FlightAware UK
01:38AM 53.4340 -7.7970 88° East 439 505 35,000  Level FlightAware
01:38AM 53.4258 -7.7752 88° East 440 506 35,000  Level FlightAware UK
01:38AM 53.4274 -7.7141 88° East 440 506 35,000  Level FlightAware UK
01:38AM 53.4292 -7.6532 87° East 442 509 35,000  Level FlightAware UK
01:38AM 53.4390 -7.6490 87° East 439 505 35,000  Level FlightAware
01:39AM 53.4322 -7.5721 87° East 442 509 35,000  Level FlightAware UK
01:39AM 53.4347 -7.5112 86° East 444 511 35,000  Level FlightAware UK
01:39AM 53.4440 -7.5040 86° East 439 505 35,000  Level FlightAware
01:39AM 53.4378 -7.4299 86° East 442 509 35,000  Level FlightAware UK
01:40AM 53.4399 -7.3690 87° East 442 509 35,000  Level FlightAware UK
01:40AM 53.4490 -7.3700 87° East 439 505 35,000  Level FlightAware
01:40AM 53.4427 -7.2877 87° East 446 513 35,000  Level FlightAware UK
01:40AM 53.4447 -7.2260 87° East 446 513 35,000  Level FlightAware UK
01:40AM 53.4540 -7.2260 87° East 440 506 35,000  Level FlightAware
01:41AM 53.4472 -7.1446 87° East 448 516 35,000  Level FlightAware UK
01:41AM 53.4490 -7.0835 87° East 450 518 35,000  Level FlightAware UK
01:41AM 53.4580 -7.0900 87° East 439 505 35,000  Level FlightAware
01:41AM 53.4507 -7.0224 87° East 452 520 35,000  Level FlightAware UK
01:42AM 53.4522 -6.9612 88° East 450 518 35,000  Level FlightAware UK
01:42AM 53.4620 -6.9340 88° East 439 505 35,000  Level FlightAware
01:42AM 53.4543 -6.8595 88° East 450 518 35,000  Level FlightAware UK
01:42AM 53.4556 -6.7986 88° East 448 516 35,000  Level FlightAware UK
01:42AM 53.4660 -6.8000 88° East 438 504 35,000  Level FlightAware
01:43AM 53.4573 -6.7174 88° East 446 513 35,000  Level FlightAware UK
01:43AM 53.4588 -6.6566 88° East 448 516 35,000  Level FlightAware UK
01:43AM 53.4690 -6.6520 88° East 438 504 35,000  Level FlightAware
01:43AM 53.4608 -6.5755 88° East 448 516 35,000  Level FlightAware UK
01:44AM 53.4620 -6.5148 88° East 450 518 35,000  Level FlightAware UK
01:44AM 53.4720 -6.5230 88° East 437 503 35,000  Level FlightAware
01:44AM 53.4638 -6.4338 88° East 450 518 35,000  Level FlightAware UK
01:44AM 53.4650 -6.3731 88° East 448 516 35,000  Level FlightAware UK
01:45AM 53.4760 -6.3750 88° East 436 502 35,000  Level FlightAware
01:45AM 53.4666 -6.2923 88° East 448 516 35,000  Level FlightAware UK
01:45AM 53.4678 -6.2317 88° East 446 513 35,000  Level FlightAware UK
01:45AM 53.4770 -6.3090 88° East 436 502 35,000  Level FlightAware
01:45AM 53.4690 -6.1712 88° East 446 513 35,000  Level FlightAware UK
01:46AM 53.4702 -6.1107 88° East 446 513 35,000  Level FlightAware UK
01:46AM 53.4713 -6.0496 88° East 446 513 35,000  Level FlightAware UK
01:46AM 53.4830 -6.0420 88° East 435 501 35,000  Level FlightAware
01:46AM 53.4729 -5.9690 88° East 444 511 35,000  Level FlightAware UK
01:47AM 53.4739 -5.9086 88° East 446 513 35,000  Level FlightAware UK
01:47AM 53.4860 -5.9010 88° East 435 501 35,000  Level FlightAware
01:47AM 53.4752 -5.8283 88° East 444 511 35,000  Level FlightAware UK
01:47AM 53.4755 -5.7680 89° East 444 511 35,000  Level FlightAware UK
01:48AM 53.4870 -5.7660 89° East 434 499 35,000  Level FlightAware
01:48AM 53.4745 -5.6877 89° East 444 511 35,000  Level FlightAware UK
01:48AM 53.4735 -5.6276 92° East 444 511 35,000  Level FlightAware UK
01:48AM 53.4850 -5.6210 92° East 433 498 35,000  Level FlightAware
01:49AM 53.4718 -5.5474 92° East 442 509 35,000  Level FlightAware UK
01:49AM 53.4704 -5.4872 92° East 444 511 35,000  Level FlightAware UK
01:49AM 53.4820 -5.4810 92° East 433 498 35,000  Level FlightAware
01:49AM 53.4684 -5.4070 92° East 448 516 35,000  Level FlightAware UK
01:50AM 53.4668 -5.3469 93° East 448 516 35,000  Level FlightAware UK
01:50AM 53.4790 -5.3520 93° East 433 498 35,000  Level FlightAware
01:50AM 53.4652 -5.2868 93° East 450 518 35,000  Level FlightAware UK
01:50AM 53.4637 -5.2268 92° East 448 516 35,000  Level FlightAware UK
01:50AM 53.4760 -5.1970 92° East 432 497 35,000  Level FlightAware
01:51AM 53.4730 -5.0620 92° East 431 496 35,000  Level FlightAware
01:51AM 53.4593 -5.0464 92° East 444 511 35,000  Level FlightAware UK
01:51AM 53.4577 -4.9866 92° East 442 509 35,000  Level FlightAware UK
01:52AM 53.4562 -4.9269 92° East 442 509 35,000  Level FlightAware UK
01:52AM 53.4690 -4.9160 92° East 431 496 35,000  Level FlightAware
01:52AM 53.4543 -4.8472 92° East 442 509 35,000  Level FlightAware UK
01:52AM 53.4528 -4.7875 93° East 440 506 35,000  Level FlightAware UK
01:52AM 53.4660 -4.7800 93° East 431 496 35,000  Level FlightAware
01:53AM 53.4505 -4.7079 93° East 446 513 35,000  Level FlightAware UK
01:53AM 53.4488 -4.6481 93° East 444 511 35,000  Level FlightAware UK
01:53AM 53.4620 -4.6380 93° East 431 496 35,000  Level FlightAware
01:53AM 53.4463 -4.5683 93° East 448 516 35,000  Level FlightAware UK
01:54AM 53.4444 -4.5079 93° East 446 513 35,000  Level FlightAware UK
01:54AM 53.4580 -4.4980 93° East 430 495 35,000  Level FlightAware
01:54AM 53.4412 -4.4084 93° East 446 513 35,000  Level FlightAware UK
01:55AM 53.4394 -4.3494 93° East 444 511 35,000  Level FlightAware UK
01:55AM 53.4540 -4.3530 93° East 430 495 35,000  Level FlightAware
01:55AM 53.4375 -4.2891 93° East 444 511 35,000  Level FlightAware UK
01:55AM 53.4356 -4.2295 93° East 442 509 35,000  Level FlightAware UK
01:55AM 53.4500 -4.2210 93° East 429 494 35,000  Level FlightAware
01:56AM 53.4329 -4.1501 93° East 444 511 35,000  Level FlightAware UK
01:56AM 53.4308 -4.0906 93° East 442 509 35,000  Level FlightAware UK
01:56AM 53.4450 -4.0710 93° East 429 494 35,000  Level FlightAware
01:56AM 53.4267 -3.9717 93° East 442 509 35,000  Level FlightAware UK
01:57AM 53.4410 -3.9400 93° East 429 494 35,000  Level FlightAware
01:57AM 53.4233 -3.8726 93° East 442 509 35,000  Level FlightAware UK
01:57AM 53.4212 -3.8125 93° East 442 509 35,000  Level FlightAware UK
01:57AM 53.4360 -3.8000 93° East 429 494 35,000  Level FlightAware
01:58AM 53.4182 -3.7332 93° East 442 509 35,000  Level FlightAware UK
01:58AM 53.4153 -3.6545 94° East 442 509 35,000  Level FlightAware UK
01:58AM 53.4310 -3.6670 94° East 430 495 35,000  Level FlightAware
01:58AM 53.4131 -3.5942 94° East 444 511 35,000  Level FlightAware UK
01:59AM 53.4110 -3.5347 93° East 442 509 35,000  Level FlightAware UK
01:59AM 53.4260 -3.5150 93° East 429 494 35,000  Level FlightAware
01:59AM 53.4241 -3.4523 93° East 431 496 35,000  Level FlightAware ADS-B
01:59AM 53.4059 -3.3949 93° East 440 506 35,000  Level FlightAware UK
02:00AM 53.4205 -3.3517 93° East 431 496 35,000  Level FlightAware ADS-B
02:00AM 53.4023 -3.2954 93° East 438 504 35,000  Level FlightAware UK
02:00AM 53.4167 -3.2513 93° East 432 497 35,000  Level FlightAware ADS-B
02:00AM 53.3983 -3.1960 93° East 438 504 35,000  Level FlightAware UK
02:01AM 53.4126 -3.1467 93° East 432 497 35,000  Level FlightAware ADS-B
02:01AM 53.3923 -3.0559 93° East 440 506 35,000  Level FlightAware UK
02:01AM 53.4078 -3.0275 93° East 432 497 35,000  Level FlightAware ADS-B
02:02AM 53.3879 -2.9563 93° East 438 504 35,000  Level FlightAware UK
02:02AM 53.4012 -2.8819 93° East 432 497 35,000  Level FlightAware ADS-B
02:02AM 53.3793 -2.7768 93° East 436 502 35,000  Level FlightAware UK
02:03AM 53.3934 -2.7080 93° East 434 499 35,000  Level FlightAware ADS-B
02:03AM 53.3736 -2.6567 93° East 438 504 35,000  Level FlightAware UK
02:03AM 53.3886 -2.6055 93° East 436 502 35,000  Level FlightAware ADS-B
02:04AM 53.3669 -2.5155 93° East 440 506 35,000  Level FlightAware UK
02:04AM 53.3633 -2.4349 94° East 440 506 35,000  Level FlightAware UK
02:04AM 53.3794 -2.4083 94° East 437 503 35,000  Level FlightAware ADS-B
02:05AM 53.3584 -2.3338 94° East 442 509 35,000  Level FlightAware UK
02:05AM 53.3750 -2.3070 94° East 438 504 35,000  Level FlightAware
02:05AM 53.3485 -2.1925 94° East 440 506 35,000  Level FlightAware UK
02:06AM 53.3630 -2.1570 94° East 437 503 35,000  Level FlightAware
02:06AM 53.3390 -2.0929 94° East 440 506 35,000  Level FlightAware UK
02:06AM 53.3331 -2.0324 99° East 440 506 35,000  Level FlightAware UK
02:06AM 53.3483 -2.0059 99° East 439 505 35,000  Level FlightAware ADS-B
02:07AM 53.3252 -1.9526 99° East 440 506 35,000  Level FlightAware UK
02:07AM 53.3386 -1.9048 99° East 439 505 35,000  Level FlightAware ADS-B
02:08AM 53.3252 -1.7686 99° East 440 506 35,000  Level FlightAware ADS-B
02:08AM 53.2974 -1.6720 99° East 438 504 35,000  Level FlightAware UK
02:08AM 53.3135 -1.6497 99° East 441 507 35,000  Level FlightAware ADS-B
02:09AM 53.3034 -1.5475 99° East 442 509 35,000 -180 Level FlightAware ADS-B
02:09AM 53.2792 -1.4904 99° East 440 506 34,900  Descending FlightAware UK
02:09AM 53.2940 -1.4460 99° East 442 509 35,000  Climbing FlightAware
02:10AM 53.2653 -1.3493 99° East 442 509 34,900  Descending FlightAware UK
02:10AM 53.2787 -1.2938 99° East 444 511 35,000  Climbing FlightAware ADS-B
02:10AM 53.2515 -1.2078 99° East 444 511 34,900  Descending FlightAware UK
02:10AM 53.2660 -1.1653 99° East 444 511 35,000 180 Climbing FlightAware ADS-B
02:11AM 53.2411 -1.1061 99° East 446 513 35,000  Level FlightAware UK
02:11AM 53.2546 -1.0545 99° East 444 511 35,000  Level FlightAware ADS-B
02:11AM 53.2285 -0.9851 99° East 450 518 35,000  Level FlightAware UK
02:12AM 53.2220 -0.9248 100° East 450 518 35,000  Level FlightAware UK
02:12AM 53.2360 -0.8810 100° East 444 511 35,000  Level FlightAware
02:12AM 53.2111 -0.8242 100° East 450 518 35,000  Level FlightAware UK
02:12AM 53.2045 -0.7631 100° East 450 518 35,000  Level FlightAware UK
02:13AM 53.2210 -0.7430 100° East 444 511 35,000  Level FlightAware
02:13AM 53.1957 -0.6820 100° East 450 518 35,000  Level FlightAware UK
02:13AM 53.1891 -0.6218 100° East 448 516 35,000  Level FlightAware UK
02:13AM 53.2050 -0.5970 100° East 443 510 35,000  Level FlightAware
02:14AM 53.2003 -0.5516 100° East 442 509 35,000  Level FlightAware ADS-B
02:14AM 53.1713 -0.4613 100° East 448 516 35,000  Level FlightAware UK
02:14AM 53.1803 -0.3705 100° East 441 507 35,000  Level FlightAware ADS-B
02:15AM 53.1557 -0.3213 100° East 446 513 35,000  Level FlightAware UK
02:15AM 53.1691 -0.2687 100° East 441 507 35,000  Level FlightAware ADS-B
02:15AM 53.1447 -0.2214 100° East 446 513 35,000  Level FlightAware UK
02:16AM 53.1558 -0.1521 100° East 440 506 35,000  Level FlightAware ADS-B
02:16AM 53.1310 -0.1014 100° East 444 511 35,000  Level FlightAware UK
02:16AM 53.1432 -0.0407 100° East 439 505 35,000  Level FlightAware ADS-B
02:16AM 53.1173 0.0182 100° East 442 509 35,000  Level FlightAware UK
02:17AM 53.1310 0.0647 100° East 438 504 35,000  Level FlightAware ADS-B
02:17AM 53.1059 0.1170 100° East 440 506 35,000  Level FlightAware UK
02:17AM 53.1186 0.1718 100° East 437 503 35,000  Level FlightAware ADS-B
02:18AM 53.0921 0.2352 100° East 438 504 35,000  Level FlightAware UK
02:18AM 53.1067 0.2724 100° East 436 502 35,000  Level FlightAware ADS-B
02:18AM 53.0805 0.3335 100° East 438 504 35,000  Level FlightAware UK
02:18AM 53.0917 0.3999 100° East 435 501 35,000  Level FlightAware ADS-B
02:19AM 53.0663 0.4519 100° East 438 504 35,000  Level FlightAware UK
02:19AM 53.0790 0.5055 100° East 435 501 35,000  Level FlightAware ADS-B
02:19AM 53.0546 0.5498 100° East 440 506 35,000  Level FlightAware UK
02:19AM 53.0670 0.6070 100° East 434 499 35,000  Level FlightAware
02:20AM 53.0587 0.6725 102° East 436 502 35,000  Level FlightAware ADS-B
02:20AM 53.0285 0.7652 102° East 438 504 35,000  Level FlightAware UK
02:20AM 53.0431 0.7997 102° East 436 502 35,000  Level FlightAware ADS-B
02:21AM 53.0189 0.8436 102° East 440 506 35,000  Level FlightAware UK
02:21AM 53.0311 0.8984 102° East 436 502 35,000  Level FlightAware ADS-B
02:21AM 53.0185 0.9990 102° East 436 502 35,000  Level FlightAware ADS-B
02:22AM 52.9921 1.0596 102° East 438 504 35,000  Level FlightAware UK
02:22AM 53.0058 1.1001 102° East 435 501 35,000  Level FlightAware ADS-B
02:22AM 52.9923 1.2069 102° East 436 502 35,000  Level FlightAware ADS-B
02:23AM 52.9673 1.2559 102° East 440 506 35,000  Level FlightAware UK
02:23AM 52.9792 1.3097 102° East 436 502 35,000  Level FlightAware ADS-B
02:23AM 52.9526 1.3743 102° East 438 504 35,000  Level FlightAware UK
02:24AM 52.9643 1.4267 102° East 437 503 35,000  Level FlightAware ADS-B
02:24AM 52.9398 1.4725 102° East 438 504 35,000  Level FlightAware UK
02:24AM 52.9513 1.5276 102° East 437 503 35,000  Level FlightAware ADS-B
02:24AM 52.9252 1.5897 102° East 438 504 35,000  Level FlightAware UK
02:25AM 52.9383 1.6279 102° East 437 503 35,000  Level FlightAware ADS-B
02:25AM 52.9120 1.6880 102° East 438 504 35,000  Level FlightAware UK
02:25AM 52.9227 1.7461 102° East 438 504 35,000  Level FlightAware ADS-B
02:26AM 52.8966 1.8052 102° East 440 506 35,000  Level FlightAware UK
02:26AM 52.9076 1.8605 102° East 438 504 35,000  Level FlightAware ADS-B
02:26AM 52.8758 1.9637 102° East 438 504 35,000  Level FlightAware UK
02:26AM 52.8920 1.9770 102° East 439 505 35,000  Level FlightAware
02:27AM 52.8653 2.0423 102° East 438 504 35,000  Level FlightAware UK
02:27AM 52.8718 2.1265 102° East 441 507 35,000  Level FlightAware ADS-B
02:27AM 52.8467 2.1808 102° East 438 504 35,000  Level FlightAware UK
02:28AM 52.8540 2.2540 102° East 441 507 35,000  Level FlightAware
02:28AM 52.8306 2.2984 102° East 438 504 35,000  Level FlightAware UK
02:28AM 52.8187 2.3566 109° East 440 506 35,000  Level FlightAware UK
02:28AM 52.8310 2.3840 109° East 440 506 35,000  Level FlightAware
02:29AM 52.7954 2.4497 109° East 440 506 35,000  Level FlightAware UK
02:29AM 52.7970 2.5130 109° East 441 507 35,000  Level FlightAware
02:30AM 52.7609 2.5801 109° East 442 509 35,000  Level FlightAware UK
02:30AM 52.7620 2.6430 109° East 442 509 35,000  Level FlightAware
02:30AM 52.7315 2.6906 109° East 442 509 35,000  Level FlightAware UK
02:31AM 52.7114 2.7652 114° Southeast 442 509 35,000  Level FlightAware UK
02:31AM 52.7230 2.7890 114° Southeast 443 510 35,000  Level FlightAware
02:31AM 52.6914 2.8393 114° Southeast 442 509 35,000  Level FlightAware UK
02:31AM 52.6766 2.8949 114° Southeast 442 509 35,000  Level FlightAware UK
02:31AM 52.6890 2.9120 114° Southeast 443 510 35,000  Level FlightAware
02:32AM 52.6516 2.9873 114° Southeast 442 509 35,000  Level FlightAware UK
02:32AM 52.6365 3.0427 114° Southeast 442 509 35,000  Level FlightAware UK
02:32AM 52.6520 3.0470 114° Southeast 444 511 35,000  Level FlightAware
02:32AM 52.6213 3.0981 114° Southeast 442 509 35,000  Level FlightAware UK
02:33AM 52.6180 3.1720 114° Southeast 444 511 35,000  Level FlightAware
02:33AM 52.5758 3.2643 114° Southeast 444 511 35,000  Level FlightAware UK
02:33AM 52.5840 3.2960 114° Southeast 443 510 35,000  Level FlightAware
02:34AM 52.5460 3.4310 115° Southeast 443 510 35,000  Level FlightAware
02:34AM 52.5149 3.4860 115° Southeast 442 509 35,000  Level FlightAware UK
02:35AM 52.4994 3.5410 115° Southeast 442 509 35,000  Level FlightAware UK
02:35AM 52.5120 3.5520 115° Southeast 443 510 35,000  Level FlightAware
02:35AM 52.4762 3.6123 115° Southeast 442 509 35,000  Level FlightAware UK
02:35AM 52.4720 3.6750 115° Southeast 443 510 35,000  Level FlightAware
02:36AM 52.4260 3.8010 121° Southeast 441 507 35,000  Level FlightAware
02:37AM 52.3830 3.9130 122° Southeast 441 507 35,000  Level FlightAware
02:37AM 52.3442 3.9736 122° Southeast 438 504 35,000  Level FlightAware UK
02:38AM 52.3370 4.0330 122° Southeast 441 507 35,000  Level FlightAware
02:38AM 52.2988 4.0924 122° Southeast 436 502 35,000  Level FlightAware UK
02:38AM 52.2900 4.1580 122° Southeast 442 509 35,000  Level FlightAware
02:39AM 52.2470 4.2710 122° Southeast 441 507 35,000  Level FlightAware
02:40AM 52.1967 4.3653 122° Southeast 436 502 35,000  Level FlightAware UK
02:40AM 52.2060 4.3790 122° Southeast 441 507 35,000  Level FlightAware
02:40AM 52.1515 4.4844 122° Southeast 436 502 35,000  Level FlightAware UK
02:40AM 52.1550 4.5130 122° Southeast 443 510 35,000  Level FlightAware
02:41AM 52.1140 4.6210 122° Southeast 443 510 35,000  Level FlightAware
02:42AM 52.0640 4.7520 122° Southeast 443 510 35,000  Level FlightAware
02:42AM 52.0220 4.8580 123° Southeast 443 510 35,000  Level FlightAware
02:43AM 51.9751 4.9426 123° Southeast 438 504 35,000  Level FlightAware UK
02:43AM 51.9770 4.9750 123° Southeast 444 511 35,000  Level FlightAware
02:44AM 51.9348 5.0431 123° Southeast 438 504 35,000  Level FlightAware UK
02:44AM 51.9270 5.1030 119° Southeast 444 511 35,000  Level FlightAware
02:44AM 51.9113 5.1129 119° Southeast 440 506 35,000  Level FlightAware UK
02:45AM 51.8830 5.2150 122° Southeast 444 511 35,000  Level FlightAware
02:45AM 51.8360 5.3360 122° Southeast 444 511 35,000 -120 Level FlightAware
02:46AM 51.7941 5.4174 122° Southeast 438 504 34,900  Descending FlightAware UK
02:46AM 51.8010 5.4270 122° Southeast 445 512 35,000 180 Climbing FlightAware
02:46AM 51.7580 5.4989 122° Southeast 438 504 35,000  Level FlightAware UK
02:47AM 51.7375 5.5489 123° Southeast 438 504 35,000  Level FlightAware UK
02:47AM 51.7410 5.5780 123° Southeast 444 511 35,000  Level FlightAware
02:47AM 51.7040 5.6332 123° Southeast 438 504 35,000  Level FlightAware UK
02:47AM 51.6844 5.6837 122° Southeast 438 504 35,000  Level FlightAware UK
02:47AM 51.6960 5.6900 122° Southeast 444 511 35,000  Level FlightAware
02:48AM 51.6581 5.7508 122° Southeast 438 504 35,000  Level FlightAware UK
02:48AM 51.6460 5.8130 122° Southeast 445 512 35,000  Level FlightAware
02:49AM 51.6020 5.9240 123° Southeast 445 512 35,000  Level FlightAware
02:50AM 51.5530 6.0470 123° Southeast 446 513 35,000  Level FlightAware
02:50AM 51.4990 6.1790 123° Southeast 445 512 35,000  Level FlightAware
02:51AM 51.4470 6.3060 123° Southeast 440 506 35,000  Level FlightAware
02:52AM 51.4040 6.4100 124° Southeast 440 506 35,000  Level FlightAware
02:52AM 51.3540 6.5290 124° Southeast 443 510 35,000  Level FlightAware
02:53AM 51.3040 6.6510 123° Southeast 443 510 35,000  Level FlightAware
02:54AM 51.2600 6.7560 124° Southeast 442 509 35,000  Level FlightAware
02:55AM 51.1930 6.9180 123° Southeast 440 506 35,000  Level FlightAware
02:55AM 51.1520 7.0150 124° Southeast 441 507 35,000  Level FlightAware
02:56AM 51.1080 7.1180 124° Southeast 436 502 35,000  Level FlightAware
02:57AM 51.0380 7.2410 132° Southeast 443 510 35,000  Level FlightAware
02:58AM 50.9830 7.3300 134° Southeast 437 503 35,000  Level FlightAware
02:58AM 50.9240 7.4240 135° Southeast 442 509 35,000  Level FlightAware
02:59AM 50.8590 7.5290 134° Southeast 447 514 35,000  Level FlightAware
03:00AM 50.7630 7.6810 135° Southeast 446 513 35,000  Level FlightAware
03:01AM 50.6960 7.7880 135° Southeast 451 519 35,000  Level FlightAware
03:02AM 50.6280 7.8960 135° Southeast 453 521 35,000  Level FlightAware
03:02AM 50.5660 7.9920 135° Southeast 453 521 35,000  Level FlightAware
03:03AM 50.5080 8.0840 135° Southeast 453 521 35,000  Level FlightAware
03:04AM 50.4500 8.1750 135° Southeast 454 522 35,000  Level FlightAware
03:04AM 50.3870 8.2720 136° Southeast 453 521 35,000  Level FlightAware
03:05AM 50.3190 8.3780 135° Southeast 452 520 35,000  Level FlightAware
03:06AM 50.2550 8.4770 135° Southeast 452 520 35,000  Level FlightAware
03:07AM 50.1720 8.6040 136° Southeast 449 517 35,000  Level FlightAware
03:07AM 50.1110 8.6990 135° Southeast 447 514 35,000  Level FlightAware
03:08AM 50.0460 8.7980 136° Southeast 446 513 35,000  Level FlightAware
03:09AM 49.9870 8.8870 136° Southeast 444 511 35,000  Level FlightAware
03:10AM 49.9290 8.9750 136° Southeast 444 511 35,000  Level FlightAware
03:10AM 49.8630 9.0730 136° Southeast 442 509 35,000  Level FlightAware
03:11AM 49.8100 9.1530 136° Southeast 440 506 35,000  Level FlightAware
03:12AM 49.7450 9.2500 136° Southeast 439 505 35,000  Level FlightAware
03:12AM 49.6870 9.3380 136° Southeast 437 503 35,000  Level FlightAware
03:13AM 49.6270 9.4310 135° Southeast 436 502 35,000  Level FlightAware
03:14AM 49.5650 9.5390 131° Southeast 434 499 35,000 -240 Level FlightAware
03:14AM 49.5210 9.6180 131° Southeast 440 506 34,700 -1,260 Descending FlightAware
03:15AM 49.4530 9.7370 131° Southeast 442 509 33,300 -2,160 Descending FlightAware
03:16AM 49.3940 9.8410 131° Southeast 440 506 31,400 -2,520 Descending FlightAware
03:17AM 49.3420 9.9320 131° Southeast 437 503 29,800 -2,280 Descending FlightAware
03:17AM 49.2940 10.0140 132° Southeast 432 497 28,400 -2,400 Descending FlightAware
03:18AM 49.2300 10.1230 132° Southeast 419 482 26,500 -2,220 Descending FlightAware
03:19AM 49.1800 10.2100 131° Southeast 405 466 25,300 -1,140 Descending FlightAware
03:19AM 49.1310 10.2930 132° Southeast 396 456 25,000 -480 Descending FlightAware
03:20AM 49.0750 10.3820 134° Southeast 406 467 24,700 -1,020 Descending FlightAware
03:21AM 49.0170 10.4750 134° Southeast 396 456 23,600 -1,440 Descending FlightAware
03:21AM 48.9680 10.5530 134° Southeast 386 444 22,600 -1,440 Descending FlightAware
03:22AM 48.9180 10.6340 133° Southeast 382 440 21,600 -1,620 Descending FlightAware
03:23AM 48.8610 10.7260 133° Southeast 379 436 20,400 -1,560 Descending FlightAware
03:23AM 48.8220 10.7870 134° Southeast 371 427 19,600 -960 Descending FlightAware
03:24AM 48.7780 10.8560 134° Southeast 368 423 19,200 -1,980 Descending FlightAware
03:25AM 48.7210 10.9330 138° Southeast 355 409 16,900 -2,340 Descending FlightAware
03:26AM 48.6560 11.0250 137° Southeast 346 398 15,200 -1,860 Descending FlightAware
03:27AM 48.6070 11.0960 136° Southeast 338 389 13,800 -1,920 Descending FlightAware
03:27AM 48.5590 11.1640 137° Southeast 334 384 12,500 -1,860 Descending FlightAware
03:28AM 48.5170 11.2230 137° Southeast 329 379 11,300 -1,080 Descending FlightAware
03:29AM 48.4660 11.2930 138° Southeast 297 342 11,000 -240 Descending FlightAware
03:29AM 48.4350 11.3630 124° Southeast 285 328 11,000  Level FlightAware
03:30AM 48.4380 11.4310 86° East 282 325 11,000 -720 Level FlightAware
03:31AM 48.4460 11.5270 83° East 277 319 10,100 -840 Descending FlightAware
03:31AM 48.4500 11.5860 84° East 282 325 10,000 -540 Descending FlightAware
03:32AM 48.4540 11.6450 84° East 279 321 9,600 -1,140 Descending FlightAware
03:32AM 48.4580 11.6930 83° East 276 318 9,000 -900 Descending FlightAware
03:32AM 48.4610 11.7220 81° East 279 321 9,000  Level FlightAware
03:33AM 48.4660 11.7810 83° East 279 321 9,000  Level FlightAware
03:33AM 48.4680 11.8010 81° East 280 322 9,000  Level FlightAware
03:33AM 48.4710 11.8470 84° East 278 320 9,000 -540 Level FlightAware
03:34AM 48.4750 11.9140 85° East 271 312 8,500 -960 Descending FlightAware
03:35AM 48.4800 11.9870 84° East 259 298 7,800 -900 Descending FlightAware
03:35AM 48.4840 12.0400 83° East 241 277 7,500 -840 Descending FlightAware
03:36AM 48.4880 12.0890 83° East 236 272 7,000 -1,020 Descending FlightAware
03:36AM 48.4910 12.1310 84° East 235 270 6,600 -1,080 Descending FlightAware
03:37AM 48.4940 12.1720 84° East 234 269 6,100 -1,200 Descending FlightAware
03:37AM 48.4960 12.2040 85° East 235 270 5,700 -1,380 Descending FlightAware
03:37AM 48.4930 12.2450 96° East 246 283 5,100 -1,380 Descending FlightAware
03:38AM 48.4820 12.2610 136° Southeast 249 287 4,800 -1,620 Descending FlightAware
03:38AM 48.4650 12.2700 161° South 239 275 4,300 -1,200 Descending FlightAware
03:38AM 48.4420 12.2570 201° Southwest 234 269 4,000 -780 Descending FlightAware
03:38AM 48.4290 12.2360 227° Southwest 228 262 3,800 -300 Descending FlightAware
03:39AM 48.4120 12.2040 231° Southwest 224 258 3,800  Level FlightAware
03:39AM 48.4080 12.1750 258° West 223 257 3,800  Level FlightAware
03:40AM 48.4050 12.1370 263° West 216 249 3,800  Level FlightAware
03:40AM 48.4030 12.1030 265° West 185 213 3,800  Level FlightAware
03:41AM 48.4000 12.0670 263° West 172 198 3,800  Level FlightAware
03:41AM 48.3970 12.0310 263° West 172 198 3,800 -420 Level FlightAware
03:42AM 48.3940 11.9950 263° West 173 199 3,400 -960 Descending FlightAware
03:42AM 48.3920 11.9700 263° West 176 203 3,000 -1,020 Descending FlightAware
03:42AM 48.3890 11.9300 264° West 155 178 2,500 -840 Descending FlightAware
03:43AM 48.3880 11.9140 265° West 142 163 2,300 -780 Descending FlightAware
03:43AM 48.3860 11.8910 263° West 137 158 2,000 -780 Descending FlightAware
03:44AM 48.3840 11.8630 264° West 134 154 1,600 -720 Descending FlightAware
03:44AM 48.3820 11.8370 263° West 132 152 1,300 -600 Descending FlightAware
03:44AM 48.3800 11.8200 260° West 92 106 -3,900 Descending FlightAware
03:45AM 48.3790 11.8080 263° West 22 25  Level FlightAware
03:45AM 48.3780 11.8060 233° Southwest 24 28  Level FlightAware